createdAt,value
2023-02-13T00:00:30.530Z,1037.85
2023-02-13T00:01:30.539Z,1037.83
2023-02-13T00:02:30.517Z,1037.81
2023-02-13T00:03:30.544Z,1037.83
2023-02-13T00:04:30.496Z,1037.78
2023-02-13T00:05:30.525Z,1037.85
2023-02-13T00:06:30.441Z,1037.77
2023-02-13T00:07:30.438Z,1037.79
2023-02-13T00:08:30.515Z,1037.75
2023-02-13T00:09:30.425Z,1037.78
2023-02-13T00:10:30.404Z,1037.78
2023-02-13T00:11:30.398Z,1037.73
2023-02-13T00:12:30.371Z,1037.78
2023-02-13T00:13:30.395Z,1037.74
2023-02-13T00:14:30.335Z,1037.78
2023-02-13T00:15:30.354Z,1037.77
2023-02-13T00:16:30.323Z,1037.74
2023-02-13T00:17:30.323Z,1037.74
2023-02-13T00:18:30.334Z,1037.79
2023-02-13T00:19:30.286Z,1037.77
2023-02-13T00:20:30.266Z,1037.79
2023-02-13T00:21:30.248Z,1037.83
2023-02-13T00:22:30.262Z,1037.76
2023-02-13T00:23:30.216Z,1037.80
2023-02-13T00:24:30.229Z,1037.81
2023-02-13T00:25:30.241Z,1037.84
2023-02-13T00:26:30.185Z,1037.86
2023-02-13T00:27:30.167Z,1037.86
2023-02-13T00:28:30.219Z,1037.93
2023-02-13T00:29:30.185Z,1037.90
2023-02-13T00:30:30.139Z,1037.92
2023-02-13T00:31:30.165Z,1037.88
2023-02-13T00:32:30.146Z,1037.90
2023-02-13T00:33:30.089Z,1037.91
2023-02-13T00:34:30.145Z,1037.89
2023-02-13T00:35:30.067Z,1037.90
2023-02-13T00:36:30.064Z,1037.96
2023-02-13T00:37:30.046Z,1037.91
2023-02-13T00:38:30.035Z,1037.90
2023-02-13T00:39:30.095Z,1037.94
2023-02-13T00:40:30.024Z,1037.93
2023-02-13T00:41:29.977Z,1037.96
2023-02-13T00:42:29.972Z,1037.95
2023-02-13T00:43:30.000Z,1037.96
2023-02-13T00:44:29.977Z,1037.97
2023-02-13T00:45:29.938Z,1037.98
2023-02-13T00:46:29.956Z,1037.99
2023-02-13T00:47:29.923Z,1037.98
2023-02-13T00:48:30.449Z,1037.97
2023-02-13T00:49:29.885Z,1038.00
2023-02-13T00:50:29.867Z,1037.97
2023-02-13T00:51:29.860Z,1037.95
2023-02-13T00:52:29.847Z,1037.93
2023-02-13T00:53:29.825Z,1037.92
2023-02-13T00:54:29.953Z,1037.98
2023-02-13T00:55:29.802Z,1037.95
2023-02-13T00:56:29.798Z,1037.97
2023-02-13T00:57:29.826Z,1037.97
2023-02-13T00:58:29.801Z,1037.97
2023-02-13T00:59:29.781Z,1037.94
2023-02-13T01:00:29.736Z,1037.97
2023-02-13T01:01:29.810Z,1037.93
2023-02-13T01:02:29.721Z,1037.94
2023-02-13T01:03:29.823Z,1037.93
2023-02-13T01:04:29.767Z,1037.91
2023-02-13T01:05:29.667Z,1037.92
2023-02-13T01:06:29.660Z,1037.90
2023-02-13T01:07:29.677Z,1037.94
2023-02-13T01:08:29.633Z,1037.94
2023-02-13T01:09:29.639Z,1037.89
2023-02-13T01:10:29.648Z,1037.89
2023-02-13T01:11:29.612Z,1037.84
2023-02-13T01:12:29.601Z,1037.92
2023-02-13T01:13:29.637Z,1037.87
2023-02-13T01:14:29.588Z,1037.84
2023-02-13T01:15:29.553Z,1037.85
2023-02-13T01:16:29.551Z,1037.87
2023-02-13T01:17:29.560Z,1037.85
2023-02-13T01:18:29.503Z,1037.88
2023-02-13T01:19:29.523Z,1037.77
2023-02-13T01:20:29.514Z,1037.80
2023-02-13T01:21:29.464Z,1037.78
2023-02-13T01:22:29.462Z,1037.74
2023-02-13T01:23:29.458Z,1037.72
2023-02-13T01:24:29.472Z,1037.73
2023-02-13T01:25:29.426Z,1037.81
2023-02-13T01:26:29.437Z,1037.76
2023-02-13T01:27:29.392Z,1037.75
2023-02-13T01:28:29.528Z,1037.79
2023-02-13T01:29:29.385Z,1037.78
2023-02-13T01:30:29.353Z,1037.79
2023-02-13T01:31:29.451Z,1037.78
2023-02-13T01:32:29.398Z,1037.77
2023-02-13T01:33:29.323Z,1037.77
2023-02-13T01:34:29.351Z,1037.81
2023-02-13T01:35:29.307Z,1037.74
2023-02-13T01:36:29.276Z,1037.72
2023-02-13T01:37:29.258Z,1037.73
2023-02-13T01:38:29.277Z,1037.76
2023-02-13T01:39:29.253Z,1037.68
2023-02-13T01:40:29.227Z,1037.72
2023-02-13T01:41:29.236Z,1037.70
2023-02-13T01:42:29.198Z,1037.69
2023-02-13T01:43:29.176Z,1037.74
2023-02-13T01:44:29.211Z,1037.71
2023-02-13T01:45:29.170Z,1037.73
2023-02-13T01:46:29.191Z,1037.74
2023-02-13T01:47:29.124Z,1037.76
2023-02-13T01:48:31.515Z,1037.78
2023-02-13T01:49:29.155Z,1037.79
2023-02-13T01:50:29.090Z,1037.79
2023-02-13T01:51:29.106Z,1037.76
2023-02-13T01:52:29.077Z,1037.74
2023-02-13T01:53:29.060Z,1037.79
2023-02-13T01:54:29.048Z,1037.80
2023-02-13T01:55:29.083Z,1037.78
2023-02-13T01:56:29.007Z,1037.75
2023-02-13T01:57:28.996Z,1037.76
2023-02-13T01:58:29.018Z,1037.77
2023-02-13T01:59:28.997Z,1037.75
2023-02-13T02:00:28.970Z,1037.80
2023-02-13T02:01:28.993Z,1037.78
2023-02-13T02:02:29.010Z,1037.70
2023-02-13T02:03:28.920Z,1037.70
2023-02-13T02:04:29.018Z,1037.81
2023-02-13T02:05:28.934Z,1037.74
2023-02-13T02:06:28.901Z,1037.72
2023-02-13T02:07:28.921Z,1037.73
2023-02-13T02:08:28.863Z,1037.71
2023-02-13T02:09:28.841Z,1037.73
2023-02-13T02:10:28.915Z,1037.78
2023-02-13T02:11:28.814Z,1037.72
2023-02-13T02:12:28.812Z,1037.78
2023-02-13T02:13:28.818Z,1037.77
2023-02-13T02:14:28.780Z,1037.78
2023-02-13T02:15:28.788Z,1037.76
2023-02-13T02:16:28.835Z,1037.75
2023-02-13T02:17:28.744Z,1037.79
2023-02-13T02:18:28.730Z,1037.80
2023-02-13T02:19:28.737Z,1037.82
2023-02-13T02:20:28.733Z,1037.75
2023-02-13T02:21:28.718Z,1037.79
2023-02-13T02:22:28.685Z,1037.75
2023-02-13T02:23:28.700Z,1037.70
2023-02-13T02:24:28.669Z,1037.71
2023-02-13T02:25:28.657Z,1037.68
2023-02-13T02:26:28.659Z,1037.71
2023-02-13T02:27:28.615Z,1037.62
2023-02-13T02:28:28.663Z,1037.61
2023-02-13T02:29:28.613Z,1037.63
2023-02-13T02:30:28.666Z,1037.60
2023-02-13T02:31:28.609Z,1037.63
2023-02-13T02:32:28.631Z,1037.57
2023-02-13T02:33:28.538Z,1037.63
2023-02-13T02:34:28.540Z,1037.63
2023-02-13T02:35:28.564Z,1037.56
2023-02-13T02:36:28.502Z,1037.61
2023-02-13T02:37:28.496Z,1037.59
2023-02-13T02:38:28.498Z,1037.61
2023-02-13T02:39:28.463Z,1037.62
2023-02-13T02:40:28.495Z,1037.54
2023-02-13T02:41:28.432Z,1037.54
2023-02-13T02:42:28.454Z,1037.58
2023-02-13T02:43:28.453Z,1037.59
2023-02-13T02:44:28.399Z,1037.57
2023-02-13T02:45:28.487Z,1037.55
2023-02-13T02:46:28.427Z,1037.55
2023-02-13T02:47:28.374Z,1037.55
2023-02-13T02:48:28.407Z,1037.54
2023-02-13T02:49:28.333Z,1037.58
2023-02-13T02:50:28.373Z,1037.57
2023-02-13T02:51:28.327Z,1037.51
2023-02-13T02:52:28.353Z,1037.52
2023-02-13T02:53:28.276Z,1037.52
2023-02-13T02:54:28.270Z,1037.57
2023-02-13T02:55:28.306Z,1037.54
2023-02-13T02:56:29.440Z,1037.57
2023-02-13T02:57:28.233Z,1037.59
2023-02-13T02:58:28.267Z,1037.55
2023-02-13T02:59:28.206Z,1037.61
2023-02-13T03:00:28.216Z,1037.54
2023-02-13T03:01:28.222Z,1037.64
2023-02-13T03:02:28.155Z,1037.61
2023-02-13T03:03:28.152Z,1037.58
2023-02-13T03:04:28.221Z,1037.66
2023-02-13T03:05:28.125Z,1037.63
2023-02-13T03:06:28.133Z,1037.64
2023-02-13T03:07:28.166Z,1037.66
2023-02-13T03:08:28.087Z,1037.66
2023-02-13T03:09:28.065Z,1037.62
2023-02-13T03:10:28.049Z,1037.63
2023-02-13T03:11:28.074Z,1037.59
2023-02-13T03:12:28.039Z,1037.61
2023-02-13T03:13:28.026Z,1037.57
2023-02-13T03:14:28.049Z,1037.60
2023-02-13T03:15:28.030Z,1037.62
2023-02-13T03:16:28.040Z,1037.58
2023-02-13T03:17:27.966Z,1037.55
2023-02-13T03:18:27.991Z,1037.62
2023-02-13T03:19:27.951Z,1037.59
2023-02-13T03:20:27.923Z,1037.60
2023-02-13T03:21:28.022Z,1037.63
2023-02-13T03:22:27.910Z,1037.62
2023-02-13T03:23:27.894Z,1037.62
2023-02-13T03:24:27.874Z,1037.59
2023-02-13T03:25:27.904Z,1037.65
2023-02-13T03:26:27.863Z,1037.63
2023-02-13T03:27:27.839Z,1037.58
2023-02-13T03:28:27.976Z,1037.61
2023-02-13T03:29:27.810Z,1037.63
2023-02-13T03:30:27.818Z,1037.64
2023-02-13T03:31:27.817Z,1037.64
2023-02-13T03:32:27.780Z,1037.66
2023-02-13T03:33:27.772Z,1037.64
2023-02-13T03:34:27.746Z,1037.60
2023-02-13T03:35:27.801Z,1037.60
2023-02-13T03:36:27.716Z,1037.67
2023-02-13T03:37:27.717Z,1037.66
2023-02-13T03:38:27.716Z,1037.66
2023-02-13T03:39:27.705Z,1037.63
2023-02-13T03:40:27.690Z,1037.64
2023-02-13T03:41:27.690Z,1037.63
2023-02-13T03:42:29.075Z,1037.63
2023-02-13T03:43:27.628Z,1037.64
2023-02-13T03:44:27.654Z,1037.64
2023-02-13T03:45:27.777Z,1037.65
2023-02-13T03:46:27.606Z,1037.63
2023-02-13T03:47:27.648Z,1037.65
2023-02-13T03:48:27.583Z,1037.68
2023-02-13T03:49:27.584Z,1037.64
2023-02-13T03:50:27.552Z,1037.68
2023-02-13T03:51:27.538Z,1037.68
2023-02-13T03:52:27.536Z,1037.70
2023-02-13T03:53:27.507Z,1037.69
2023-02-13T03:54:27.526Z,1037.70
2023-02-13T03:55:27.513Z,1037.69
2023-02-13T03:56:27.466Z,1037.69
2023-02-13T03:57:27.466Z,1037.74
2023-02-13T03:58:27.438Z,1037.75
2023-02-13T03:59:27.425Z,1037.76
2023-02-13T04:00:27.447Z,1037.75
2023-02-13T04:01:27.482Z,1037.75
2023-02-13T04:02:27.476Z,1037.74
2023-02-13T04:03:27.424Z,1037.75
2023-02-13T04:04:27.366Z,1037.79
2023-02-13T04:05:27.344Z,1037.75
2023-02-13T04:06:27.391Z,1037.76
2023-02-13T04:07:27.329Z,1037.78
2023-02-13T04:08:27.299Z,1037.76
2023-02-13T04:09:27.323Z,1037.74
2023-02-13T04:10:27.337Z,1037.75
2023-02-13T04:11:27.411Z,1037.76
2023-02-13T04:12:27.255Z,1037.76
2023-02-13T04:13:27.252Z,1037.77
2023-02-13T04:14:27.228Z,1037.80
2023-02-13T04:15:27.252Z,1037.82
2023-02-13T04:16:27.271Z,1037.81
2023-02-13T04:17:27.202Z,1037.80
2023-02-13T04:18:27.224Z,1037.79
2023-02-13T04:19:27.170Z,1037.83
2023-02-13T04:20:27.162Z,1037.80
2023-02-13T04:21:27.134Z,1037.84
2023-02-13T04:22:27.149Z,1037.84
2023-02-13T04:23:27.155Z,1037.84
2023-02-13T04:24:27.097Z,1037.85
2023-02-13T04:25:27.133Z,1037.88
2023-02-13T04:26:27.073Z,1037.86
2023-02-13T04:27:27.067Z,1037.86
2023-02-13T04:28:27.089Z,1037.87
2023-02-13T04:29:27.162Z,1037.88
2023-02-13T04:30:27.039Z,1037.85
2023-02-13T04:31:27.168Z,1037.85
2023-02-13T04:32:27.000Z,1037.89
2023-02-13T04:33:27.004Z,1037.88
2023-02-13T04:34:27.016Z,1037.91
2023-02-13T04:35:26.967Z,1037.89
2023-02-13T04:36:26.980Z,1037.92
2023-02-13T04:37:26.946Z,1037.92
2023-02-13T04:38:26.923Z,1037.86
2023-02-13T04:39:26.936Z,1037.88
2023-02-13T04:40:26.928Z,1037.88
2023-02-13T04:41:26.922Z,1037.86
2023-02-13T04:42:26.889Z,1037.89
2023-02-13T04:43:26.911Z,1037.92
2023-02-13T04:44:26.856Z,1037.89
2023-02-13T04:45:26.860Z,1037.87
2023-02-13T04:46:26.891Z,1037.86
2023-02-13T04:47:26.821Z,1037.84
2023-02-13T04:48:26.815Z,1037.81
2023-02-13T04:49:26.867Z,1037.79
2023-02-13T04:50:26.786Z,1037.83
2023-02-13T04:51:26.760Z,1037.85
2023-02-13T04:52:26.756Z,1037.79
2023-02-13T04:53:27.001Z,1037.79
2023-02-13T04:54:26.723Z,1037.78
2023-02-13T04:55:26.712Z,1037.80
2023-02-13T04:56:26.692Z,1037.80
2023-02-13T04:57:26.688Z,1037.81
2023-02-13T04:58:26.706Z,1037.78
2023-02-13T04:59:26.662Z,1037.82
2023-02-13T05:00:26.645Z,1037.81
2023-02-13T05:01:26.688Z,1037.80
2023-02-13T05:02:26.633Z,1037.83
2023-02-13T05:03:26.613Z,1037.82
2023-02-13T05:04:26.619Z,1037.77
2023-02-13T05:05:26.595Z,1037.81
2023-02-13T05:06:26.567Z,1037.82
2023-02-13T05:07:26.577Z,1037.84
2023-02-13T05:08:26.572Z,1037.81
2023-02-13T05:09:26.545Z,1037.80
2023-02-13T05:10:26.515Z,1037.80
2023-02-13T05:11:26.530Z,1037.84
2023-02-13T05:12:26.501Z,1037.83
2023-02-13T05:13:26.479Z,1037.84
2023-02-13T05:14:26.480Z,1037.85
2023-02-13T05:15:26.590Z,1037.82
2023-02-13T05:16:26.443Z,1037.78
2023-02-13T05:17:28.275Z,1037.81
2023-02-13T05:18:26.411Z,1037.78
2023-02-13T05:19:26.414Z,1037.79
2023-02-13T05:20:26.448Z,1037.82
2023-02-13T05:21:26.383Z,1037.81
2023-02-13T05:22:26.385Z,1037.82
2023-02-13T05:23:26.357Z,1037.83
2023-02-13T05:24:26.345Z,1037.83
2023-02-13T05:25:26.316Z,1037.83
2023-02-13T05:26:26.318Z,1037.84
2023-02-13T05:27:26.323Z,1037.88
2023-02-13T05:28:26.381Z,1037.83
2023-02-13T05:29:26.390Z,1037.88
2023-02-13T05:30:26.317Z,1037.84
2023-02-13T05:31:26.318Z,1037.84
2023-02-13T05:32:26.313Z,1037.82
2023-02-13T05:33:26.220Z,1037.84
2023-02-13T05:34:26.279Z,1037.84
2023-02-13T05:35:26.189Z,1037.85
2023-02-13T05:36:26.192Z,1037.81
2023-02-13T05:37:26.180Z,1037.84
2023-02-13T05:38:26.189Z,1037.90
2023-02-13T05:39:26.169Z,1037.87
2023-02-13T05:40:26.119Z,1037.88
2023-02-13T05:41:26.158Z,1037.82
2023-02-13T05:42:26.121Z,1037.83
2023-02-13T05:43:26.096Z,1037.88
2023-02-13T05:44:26.074Z,1037.85
2023-02-13T05:45:26.080Z,1037.85
2023-02-13T05:46:26.076Z,1037.89
2023-02-13T05:47:26.182Z,1037.84
2023-02-13T05:48:26.027Z,1037.85
2023-02-13T05:49:26.020Z,1037.85
2023-02-13T05:50:26.007Z,1037.88
2023-02-13T05:51:26.002Z,1037.88
2023-02-13T05:52:26.009Z,1037.85
2023-02-13T05:53:25.979Z,1037.92
2023-02-13T05:54:25.960Z,1037.89
2023-02-13T05:55:25.933Z,1037.86
2023-02-13T05:56:25.924Z,1037.86
2023-02-13T05:57:25.922Z,1037.87
2023-02-13T05:58:25.923Z,1037.94
2023-02-13T05:59:25.898Z,1037.94
2023-02-13T06:00:25.884Z,1037.91
2023-02-13T06:01:25.869Z,1037.94
2023-02-13T06:02:25.894Z,1037.88
2023-02-13T06:03:25.913Z,1037.91
2023-02-13T06:04:25.837Z,1037.89
2023-02-13T06:05:25.846Z,1037.86
2023-02-13T06:06:25.796Z,1037.87
2023-02-13T06:07:25.854Z,1037.88
2023-02-13T06:08:25.777Z,1037.89
2023-02-13T06:09:25.708Z,1037.89
2023-02-13T06:10:25.758Z,1037.85
2023-02-13T06:11:25.690Z,1037.85
2023-02-13T06:12:25.660Z,1037.83
2023-02-13T06:13:25.674Z,1037.85
2023-02-13T06:14:25.616Z,1037.86
2023-02-13T06:15:25.687Z,1037.84
2023-02-13T06:16:25.651Z,1037.84
2023-02-13T06:17:25.656Z,1037.80
2023-02-13T06:18:25.604Z,1037.90
2023-02-13T06:19:25.583Z,1037.83
2023-02-13T06:20:25.600Z,1037.86
2023-02-13T06:21:25.552Z,1037.85
2023-02-13T06:22:25.635Z,1037.84
2023-02-13T06:23:25.536Z,1037.87
2023-02-13T06:24:25.502Z,1037.85
2023-02-13T06:25:25.524Z,1037.90
2023-02-13T06:26:25.482Z,1037.88
2023-02-13T06:27:25.557Z,1037.86
2023-02-13T06:28:25.569Z,1037.85
2023-02-13T06:29:25.444Z,1037.88
2023-02-13T06:30:25.576Z,1037.90
2023-02-13T06:31:25.599Z,1037.89
2023-02-13T06:32:25.410Z,1037.86
2023-02-13T06:33:25.406Z,1037.82
2023-02-13T06:34:25.382Z,1037.87
2023-02-13T06:35:25.368Z,1037.86
2023-02-13T06:36:25.380Z,1037.85
2023-02-13T06:37:25.344Z,1037.82
2023-02-13T06:38:25.346Z,1037.81
2023-02-13T06:39:25.326Z,1037.86
2023-02-13T06:40:25.300Z,1037.83
2023-02-13T06:41:25.299Z,1037.83
2023-02-13T06:42:25.281Z,1037.89
2023-02-13T06:43:25.291Z,1037.89
2023-02-13T06:44:25.262Z,1037.92
2023-02-13T06:45:25.242Z,1037.92
2023-02-13T06:46:25.295Z,1037.95
2023-02-13T06:47:25.214Z,1037.98
2023-02-13T06:48:25.231Z,1037.93
2023-02-13T06:49:25.185Z,1038.00
2023-02-13T06:50:25.165Z,1037.96
2023-02-13T06:51:25.173Z,1038.02
2023-02-13T06:52:25.150Z,1038.03
2023-02-13T06:53:25.177Z,1038.02
2023-02-13T06:54:41.053Z,1038.00
2023-02-13T06:55:25.110Z,1038.01
2023-02-13T06:56:25.111Z,1038.01
2023-02-13T06:57:25.081Z,1037.99
2023-02-13T06:58:25.115Z,1037.98
2023-02-13T06:59:25.089Z,1037.98
2023-02-13T07:00:26.249Z,1037.94
2023-02-13T07:01:25.208Z,1037.99
2023-02-13T07:02:25.042Z,1037.96
2023-02-13T07:03:25.000Z,1038.01
2023-02-13T07:04:25.001Z,1037.96
2023-02-13T07:05:25.265Z,1038.01
2023-02-13T07:06:24.982Z,1038.02
2023-02-13T07:07:24.953Z,1038.00
2023-02-13T07:08:24.979Z,1038.00
2023-02-13T07:09:24.950Z,1038.04
2023-02-13T07:10:25.130Z,1038.03
2023-02-13T07:11:24.923Z,1038.02
2023-02-13T07:12:24.903Z,1038.06
2023-02-13T07:13:24.895Z,1038.06
2023-02-13T07:14:24.910Z,1038.08
2023-02-13T07:15:24.881Z,1038.06
2023-02-13T07:16:24.911Z,1038.05
2023-02-13T07:17:24.849Z,1038.07
2023-02-13T07:18:24.928Z,1038.08
2023-02-13T07:19:24.810Z,1038.07
2023-02-13T07:20:24.811Z,1038.12
2023-02-13T07:21:24.802Z,1038.11
2023-02-13T07:22:24.773Z,1038.13
2023-02-13T07:23:24.753Z,1038.12
2023-02-13T07:24:24.765Z,1038.09
2023-02-13T07:25:24.737Z,1038.10
2023-02-13T07:26:24.749Z,1038.14
2023-02-13T07:27:24.686Z,1038.14
2023-02-13T07:28:24.717Z,1038.11
2023-02-13T07:29:24.690Z,1038.10
2023-02-13T07:30:24.725Z,1038.09
2023-02-13T07:31:24.831Z,1038.06
2023-02-13T07:32:24.642Z,1038.11
2023-02-13T07:33:24.617Z,1038.08
2023-02-13T07:34:24.627Z,1038.13
2023-02-13T07:35:24.616Z,1038.12
2023-02-13T07:36:24.586Z,1038.09
2023-02-13T07:37:24.567Z,1038.09
2023-02-13T07:38:24.569Z,1038.05
2023-02-13T07:39:24.561Z,1038.07
2023-02-13T07:40:24.554Z,1038.09
2023-02-13T07:41:24.540Z,1038.05
2023-02-13T07:42:24.516Z,1038.06
2023-02-13T07:43:24.513Z,1038.05
2023-02-13T07:44:24.557Z,1038.04
2023-02-13T07:45:24.530Z,1037.99
2023-02-13T07:46:24.478Z,1037.98
2023-02-13T07:47:24.447Z,1037.96
2023-02-13T07:48:24.452Z,1037.99
2023-02-13T07:49:24.415Z,1037.97
2023-02-13T07:50:24.443Z,1037.97
2023-02-13T07:51:24.393Z,1037.98
2023-02-13T07:52:24.479Z,1038.01
2023-02-13T07:53:24.405Z,1038.02
2023-02-13T07:54:24.363Z,1038.02
2023-02-13T07:55:24.332Z,1037.99
2023-02-13T07:56:24.339Z,1037.97
2023-02-13T07:57:24.320Z,1038.00
2023-02-13T07:58:24.344Z,1038.03
2023-02-13T07:59:24.279Z,1038.03
2023-02-13T08:00:24.308Z,1038.03
2023-02-13T08:01:24.359Z,1038.07
2023-02-13T08:02:24.261Z,1038.03
2023-02-13T08:03:24.627Z,1038.01
2023-02-13T08:04:26.353Z,1038.03
2023-02-13T08:05:24.246Z,1038.03
2023-02-13T08:06:24.202Z,1038.05
2023-02-13T08:07:24.188Z,1037.95
2023-02-13T08:08:24.183Z,1037.96
2023-02-13T08:09:24.202Z,1037.98
2023-02-13T08:10:24.175Z,1037.95
2023-02-13T08:11:24.141Z,1037.93
2023-02-13T08:12:24.137Z,1037.96
2023-02-13T08:13:24.128Z,1037.90
2023-02-13T08:14:24.087Z,1037.90
2023-02-13T08:15:24.087Z,1037.87
2023-02-13T08:16:24.165Z,1037.91
2023-02-13T08:17:24.052Z,1037.93
2023-02-13T08:18:24.047Z,1037.92
2023-02-13T08:19:24.032Z,1037.90
2023-02-13T08:20:24.036Z,1037.95
2023-02-13T08:21:24.046Z,1037.89
2023-02-13T08:22:23.994Z,1037.91
2023-02-13T08:23:24.022Z,1037.87
2023-02-13T08:24:23.992Z,1037.91
2023-02-13T08:25:23.946Z,1037.93
2023-02-13T08:26:24.024Z,1037.92
2023-02-13T08:27:23.927Z,1037.92
2023-02-13T08:28:23.965Z,1037.88
2023-02-13T08:29:24.192Z,1037.89
2023-02-13T08:30:23.904Z,1037.86
2023-02-13T08:31:24.001Z,1037.90
2023-02-13T08:32:23.972Z,1037.84
2023-02-13T08:33:23.841Z,1037.88
2023-02-13T08:34:23.880Z,1037.88
2023-02-13T08:35:23.829Z,1037.85
2023-02-13T08:36:23.835Z,1037.85
2023-02-13T08:37:23.807Z,1037.86
2023-02-13T08:38:23.796Z,1037.85
2023-02-13T08:39:23.802Z,1037.90
2023-02-13T08:40:25.445Z,1037.88
2023-02-13T08:41:23.772Z,1037.92
2023-02-13T08:42:23.806Z,1037.96
2023-02-13T08:43:23.714Z,1037.89
2023-02-13T08:44:23.710Z,1037.93
2023-02-13T08:45:23.708Z,1037.93
2023-02-13T08:46:23.754Z,1037.87
2023-02-13T08:47:23.684Z,1037.86
2023-02-13T08:48:23.651Z,1037.90
2023-02-13T08:49:23.653Z,1037.92
2023-02-13T08:50:23.625Z,1037.89
2023-02-13T08:51:23.641Z,1037.91
2023-02-13T08:52:23.596Z,1037.95
2023-02-13T08:53:23.603Z,1037.95
2023-02-13T08:54:23.597Z,1037.97
2023-02-13T08:55:23.602Z,1037.95
2023-02-13T08:56:23.582Z,1037.96
2023-02-13T08:57:23.531Z,1037.98
2023-02-13T08:58:23.528Z,1037.98
2023-02-13T08:59:23.527Z,1037.95
2023-02-13T09:00:23.528Z,1037.99
2023-02-13T09:01:23.562Z,1037.99
2023-02-13T09:02:23.517Z,1037.99
2023-02-13T09:03:23.468Z,1037.98
2023-02-13T09:04:23.461Z,1037.98
2023-02-13T09:05:23.463Z,1038.05
2023-02-13T09:06:23.802Z,1037.99
2023-02-13T09:07:23.423Z,1038.01
2023-02-13T09:08:23.428Z,1037.99
2023-02-13T09:09:23.383Z,1038.02
2023-02-13T09:10:23.430Z,1037.99
2023-02-13T09:11:23.441Z,1038.05
2023-02-13T09:12:29.838Z,1038.07
2023-02-13T09:13:23.454Z,1038.06
2023-02-13T09:14:24.952Z,1038.01
2023-02-13T09:15:23.313Z,1038.07
2023-02-13T09:16:23.303Z,1038.09
2023-02-13T09:17:23.336Z,1038.05
2023-02-13T09:18:23.274Z,1038.05
2023-02-13T09:19:23.236Z,1038.04
2023-02-13T09:20:23.320Z,1038.05
2023-02-13T09:21:23.280Z,1037.99
2023-02-13T09:22:23.208Z,1038.02
2023-02-13T09:23:23.251Z,1038.05
2023-02-13T09:24:23.197Z,1038.01
2023-02-13T09:25:23.165Z,1038.08
2023-02-13T09:26:23.201Z,1038.06
2023-02-13T09:27:23.202Z,1038.10
2023-02-13T09:28:23.235Z,1038.07
2023-02-13T09:29:23.142Z,1038.06
2023-02-13T09:30:23.154Z,1038.06
2023-02-13T09:31:23.245Z,1038.04
2023-02-13T09:32:23.098Z,1038.07
2023-02-13T09:33:23.080Z,1038.06
2023-02-13T09:34:23.103Z,1038.06
2023-02-13T09:35:23.041Z,1038.03
2023-02-13T09:36:23.054Z,1038.06
2023-02-13T09:37:23.008Z,1038.07
2023-02-13T09:38:23.019Z,1038.06
2023-02-13T09:39:23.006Z,1038.03
2023-02-13T09:40:23.094Z,1038.05
2023-02-13T09:41:22.961Z,1038.06
2023-02-13T09:42:22.965Z,1038.09
2023-02-13T09:43:22.958Z,1038.12
2023-02-13T09:44:24.867Z,1038.12
2023-02-13T09:45:23.629Z,1038.10
2023-02-13T09:46:23.124Z,1038.11
2023-02-13T09:47:22.888Z,1038.13
2023-02-13T09:48:22.941Z,1038.13
2023-02-13T09:49:22.868Z,1038.13
2023-02-13T09:50:23.766Z,1038.09
2023-02-13T09:51:23.134Z,1038.09
2023-02-13T09:52:22.881Z,1038.12
2023-02-13T09:53:22.893Z,1038.13
2023-02-13T09:54:26.932Z,1038.15
2023-02-13T09:55:24.828Z,1038.14
2023-02-13T09:56:23.131Z,1038.17
2023-02-13T09:57:23.924Z,1038.20
2023-02-13T09:58:23.800Z,1038.22
2023-02-13T09:59:23.265Z,1038.19
2023-02-13T10:00:22.960Z,1038.18
2023-02-13T10:01:25.715Z,1038.16
2023-02-13T10:02:24.878Z,1038.24
2023-02-13T10:03:23.300Z,1038.15
2023-02-13T10:04:24.156Z,1038.18
2023-02-13T10:05:23.909Z,1038.18
2023-02-13T10:06:24.283Z,1038.19
2023-02-13T10:07:23.320Z,1038.16
2023-02-13T10:08:24.124Z,1038.15
2023-02-13T10:09:25.754Z,1038.19
2023-02-13T10:10:23.222Z,1038.17
2023-02-13T10:11:25.555Z,1038.14
2023-02-13T10:12:24.268Z,1038.14
2023-02-13T10:13:23.847Z,1038.13
2023-02-13T10:14:24.117Z,1038.16
2023-02-13T10:15:23.536Z,1038.15
2023-02-13T10:16:25.030Z,1038.13
2023-02-13T10:17:24.967Z,1038.19
2023-02-13T10:18:23.345Z,1038.23
2023-02-13T10:19:22.477Z,1038.21
2023-02-13T10:20:22.474Z,1038.19
2023-02-13T10:21:23.276Z,1038.25
2023-02-13T10:22:22.425Z,1038.25
2023-02-13T10:23:22.434Z,1038.18
2023-02-13T10:24:22.447Z,1038.21
2023-02-13T10:25:22.391Z,1038.21
2023-02-13T10:26:22.396Z,1038.23
2023-02-13T10:27:22.412Z,1038.21
2023-02-13T10:28:22.392Z,1038.24
2023-02-13T10:29:22.829Z,1038.22
2023-02-13T10:30:26.290Z,1038.21
2023-02-13T10:31:22.748Z,1038.28
2023-02-13T10:32:22.819Z,1038.25
2023-02-13T10:33:22.273Z,1038.30
2023-02-13T10:34:22.284Z,1038.28
2023-02-13T10:35:22.330Z,1038.29
2023-02-13T10:36:22.265Z,1038.26
2023-02-13T10:37:22.242Z,1038.28
2023-02-13T10:38:22.283Z,1038.24
2023-02-13T10:39:22.228Z,1038.28
2023-02-13T10:40:22.193Z,1038.27
2023-02-13T10:41:22.201Z,1038.23
2023-02-13T10:42:22.183Z,1038.19
2023-02-13T10:43:22.156Z,1038.19
2023-02-13T10:44:22.145Z,1038.16
2023-02-13T10:45:22.176Z,1038.18
2023-02-13T10:46:22.172Z,1038.13
2023-02-13T10:47:22.126Z,1038.13
2023-02-13T10:48:22.151Z,1038.12
2023-02-13T10:49:22.083Z,1038.13
2023-02-13T10:50:22.071Z,1038.12
2023-02-13T10:51:22.313Z,1038.11
2023-02-13T10:52:22.072Z,1038.13
2023-02-13T10:53:22.044Z,1038.10
2023-02-13T10:54:22.064Z,1038.13
2023-02-13T10:55:22.027Z,1038.08
2023-02-13T10:56:22.037Z,1038.09
2023-02-13T10:57:22.016Z,1038.12
2023-02-13T10:58:21.957Z,1038.13
2023-02-13T10:59:21.961Z,1038.12
2023-02-13T11:00:21.963Z,1038.13
2023-02-13T11:01:21.928Z,1038.11
2023-02-13T11:02:25.313Z,1038.13
2023-02-13T11:03:22.511Z,1038.12
2023-02-13T11:04:21.966Z,1038.10
2023-02-13T11:05:21.868Z,1038.06
2023-02-13T11:06:21.878Z,1038.09
2023-02-13T11:07:21.851Z,1038.09
2023-02-13T11:08:21.838Z,1037.96
2023-02-13T11:09:21.910Z,1037.94
2023-02-13T11:10:22.488Z,1037.93
2023-02-13T11:11:21.811Z,1037.95
2023-02-13T11:12:21.962Z,1037.90
2023-02-13T11:13:21.851Z,1037.87
2023-02-13T11:14:21.774Z,1037.92
2023-02-13T11:15:21.921Z,1037.88
2023-02-13T11:16:21.816Z,1037.88
2023-02-13T11:17:21.710Z,1037.89
2023-02-13T11:18:21.698Z,1037.88
2023-02-13T11:19:21.690Z,1037.92
2023-02-13T11:20:21.697Z,1037.87
2023-02-13T11:21:21.664Z,1037.90
2023-02-13T11:22:22.088Z,1037.92
2023-02-13T11:23:21.644Z,1037.96
2023-02-13T11:24:21.654Z,1037.93
2023-02-13T11:25:22.024Z,1037.90
2023-02-13T11:26:21.685Z,1037.90
2023-02-13T11:27:22.268Z,1037.93
2023-02-13T11:28:21.616Z,1037.91
2023-02-13T11:29:21.545Z,1037.86
2023-02-13T11:30:21.568Z,1037.88
2023-02-13T11:31:21.660Z,1037.89
2023-02-13T11:32:21.590Z,1037.84
2023-02-13T11:33:21.495Z,1037.87
2023-02-13T11:34:21.508Z,1037.81
2023-02-13T11:35:21.475Z,1037.84
2023-02-13T11:36:21.477Z,1037.79
2023-02-13T11:37:21.459Z,1037.79
2023-02-13T11:38:21.420Z,1037.80
2023-02-13T11:39:21.454Z,1037.83
2023-02-13T11:40:21.424Z,1037.82
2023-02-13T11:41:21.397Z,1037.82
2023-02-13T11:42:21.498Z,1037.81
2023-02-13T11:43:21.364Z,1037.84
2023-02-13T11:44:21.365Z,1037.85
2023-02-13T11:45:21.451Z,1037.86
2023-02-13T11:46:21.460Z,1037.82
2023-02-13T11:47:21.309Z,1037.81
2023-02-13T11:48:21.297Z,1037.81
2023-02-13T11:49:21.366Z,1037.79
2023-02-13T11:50:21.440Z,1037.78
2023-02-13T11:51:21.272Z,1037.77
2023-02-13T11:52:21.436Z,1037.78
2023-02-13T11:53:21.533Z,1037.81
2023-02-13T11:54:21.545Z,1037.76
2023-02-13T11:55:21.255Z,1037.77
2023-02-13T11:56:26.874Z,1037.77
2023-02-13T11:57:26.113Z,1037.70
2023-02-13T11:58:21.608Z,1037.73
2023-02-13T11:59:21.217Z,1037.68
2023-02-13T12:00:22.329Z,1037.73
2023-02-13T12:01:21.154Z,1037.69
2023-02-13T12:02:21.554Z,1037.71
2023-02-13T12:03:21.498Z,1037.70
2023-02-13T12:04:36.266Z,1037.71
2023-02-13T12:05:21.220Z,1037.72